KAXV/AXV METAR and TAF weather

Enter ICAO airport designator
Station Type Date Time Source
KAXV METAR 2020/11/27 02:55 UTC NOAA

KAXV 270255Z AUTO 24007KT 10SM OVC028 07/03 A3009 RMK AO2


Station Type Date Time Source
KAXV Decoded METAR 2020/11/27 02:55 UTC NOAA

Station name not available
Nov 26, 2020 - 09:55 PM EST / 2020.11.27 0255 UTC
Wind: from the WSW (240 degrees) at 8 MPH (7 KT):0
Visibility: 10 mile(s):0
Sky conditions: overcast
Temperature: 44 F (7 C)
Dew Point: 37 F (3 C)
Relative Humidity: 75%
Pressure (altimeter): 30.09 in. Hg (1018 hPa)
ob: KAXV 270255Z AUTO 24007KT 10SM OVC028 07/03 A3009 RMK AO2
cycle: 3

Station Type Date Time Source
KAXV TAF UTC NOAA

Error!

Example: see airport list